Time;durP1;ratioP1;P1;durP2;ratioP2;P2;SDS_P1;SDS_P2;PMS_P1;PMS_P2;Temp;Humidity;BMP_temperature;BMP_pressure;BME280_temperature;BME280_humidity;BME280_pressure;Samples;Min_cycle;Max_cycle;Signal;HPM_P1;HPM_P2
2024/02/07 00:00:48;;;;;;;1.95;1.73;;;6.00;82.20;;;;;;4980701;28;20038;-62
2024/02/07 00:03:14;;;;;;;2.15;1.67;;;6.00;83.00;;;;;;4979375;28;20035;-61
2024/02/07 00:05:39;;;;;;;3.20;1.90;;;6.00;82.10;;;;;;4975571;28;20062;-61
2024/02/07 00:08:05;;;;;;;3.08;1.60;;;6.00;82.20;;;;;;4980526;28;20035;-61
2024/02/07 00:10:32;;;;;;;4.65;1.98;;;6.00;82.20;;;;;;4982280;28;20040;-61
2024/02/07 00:12:57;;;;;;;1.65;1.42;;;6.00;82.20;;;;;;4986780;28;20057;-62
2024/02/07 00:15:23;;;;;;;5.45;1.95;;;6.00;82.50;;;;;;4982661;28;20514;-62
2024/02/07 00:17:49;;;;;;;2.20;1.98;;;6.00;82.50;;;;;;4979700;28;20398;-60
2024/02/07 00:20:15;;;;;;;3.88;1.92;;;6.00;82.60;;;;;;4979679;28;20107;-61
2024/02/07 00:22:40;;;;;;;2.47;1.73;;;6.10;82.60;;;;;;4977686;28;20038;-61
2024/02/07 00:25:07;;;;;;;3.30;1.98;;;6.10;82.40;;;;;;4977078;28;20034;-61
2024/02/07 00:27:33;;;;;;;2.63;1.90;;;6.10;82.50;;;;;;4981373;28;20031;-60
2024/02/07 00:29:59;;;;;;;3.45;2.10;;;6.10;82.60;;;;;;4984904;28;20031;-61
2024/02/07 00:32:25;;;;;;;3.03;1.70;;;6.10;83.10;;;;;;4984069;28;20120;-62
2024/02/07 00:34:51;;;;;;;4.13;2.00;;;6.10;82.80;;;;;;4978813;28;20038;-60
2024/02/07 00:37:16;;;;;;;3.97;1.60;;;6.10;82.80;;;;;;4989384;28;20041;-61
2024/02/07 00:39:44;;;;;;;6.70;2.17;;;6.10;82.70;;;;;;4979379;28;20120;-61
2024/02/07 00:42:09;;;;;;;2.47;1.90;;;6.10;82.70;;;;;;4988057;28;20065;-59
2024/02/07 00:44:36;;;;;;;3.95;2.15;;;6.10;83.10;;;;;;4976944;28;20058;-61
2024/02/07 00:47:02;;;;;;;2.85;2.00;;;6.10;83.00;;;;;;4987166;28;20073;-62
2024/02/07 00:49:27;;;;;;;3.55;2.10;;;6.10;83.20;;;;;;4981761;28;20070;-60
2024/02/07 00:51:53;;;;;;;5.53;2.20;;;6.10;83.00;;;;;;4981478;28;20561;-61
2024/02/07 00:54:18;;;;;;;3.55;2.10;;;6.10;83.00;;;;;;4985846;28;20078;-60
2024/02/07 00:56:45;;;;;;;3.83;2.08;;;6.10;83.00;;;;;;4990582;28;20060;-62
2024/02/07 00:59:11;;;;;;;2.35;1.90;;;6.10;83.90;;;;;;4980872;28;20176;-61
2024/02/07 01:01:36;;;;;;;3.92;1.88;;;6.10;83.00;;;;;;4982492;28;20499;-60
2024/02/07 01:04:02;;;;;;;4.45;2.30;;;6.20;83.00;;;;;;4983232;28;20027;-60
2024/02/07 01:06:28;;;;;;;3.65;2.22;;;6.20;83.00;;;;;;4983333;28;20096;-61
2024/02/07 01:08:53;;;;;;;4.10;2.13;;;6.20;83.00;;;;;;4984289;28;20507;-62
2024/02/07 01:11:19;;;;;;;4.60;2.20;;;6.20;83.10;;;;;;4987424;28;20041;-61
2024/02/07 01:13:47;;;;;;;3.55;2.40;;;6.20;83.00;;;;;;4986213;28;20489;-61
2024/02/07 01:16:13;;;;;;;4.45;2.22;;;6.20;82.90;;;;;;4979351;28;20034;-62
2024/02/07 01:18:39;;;;;;;5.88;2.30;;;6.30;82.90;;;;;;4979853;28;20407;-61
2024/02/07 01:21:09;;;;;;;4.38;2.30;;;6.30;83.10;;;;;;4987891;28;20042;-60
2024/02/07 01:23:37;;;;;;;5.45;2.53;;;6.30;83.10;;;;;;4981350;28;20034;-62
2024/02/07 01:26:03;;;;;;;5.07;2.30;;;6.30;82.90;;;;;;4985013;28;20109;-59
2024/02/07 01:28:28;;;;;;;3.67;2.30;;;6.30;83.00;;;;;;4982106;28;20092;-60
2024/02/07 01:30:54;;;;;;;3.90;2.67;;;6.30;83.00;;;;;;4987476;28;20505;-60
2024/02/07 01:33:20;;;;;;;5.18;2.50;;;6.30;83.00;;;;;;4986372;28;20030;-60
2024/02/07 01:35:46;;;;;;;5.18;2.80;;;6.40;83.20;;;;;;4980905;28;20490;-62
2024/02/07 01:38:17;;;;;;;9.98;2.70;;;6.40;83.20;;;;;;4985483;28;20294;-61
2024/02/07 01:40:48;;;;;;;3.60;2.53;;;6.40;83.10;;;;;;4980437;28;20035;-61
2024/02/07 01:43:14;;;;;;;4.85;2.90;;;6.40;84.00;;;;;;4977132;28;20039;-60
2024/02/07 01:45:40;;;;;;;5.80;2.78;;;6.40;83.20;;;;;;4982298;28;20038;-62
2024/02/07 01:48:07;;;;;;;3.58;2.45;;;6.40;83.10;;;;;;4975342;28;20031;-60
2024/02/07 01:50:36;;;;;;;4.03;2.40;;;6.50;83.20;;;;;;4987714;28;20030;-62
2024/02/07 01:53:03;;;;;;;4.20;2.45;;;6.50;83.00;;;;;;4982947;28;20031;-62
2024/02/07 01:55:31;;;;;;;6.18;2.50;;;6.50;83.00;;;;;;4976916;28;20031;-61
2024/02/07 01:57:58;;;;;;;3.75;2.50;;;6.50;83.00;;;;;;4985139;28;20037;-60
2024/02/07 02:00:25;;;;;;;5.82;2.78;;;6.60;83.10;;;;;;4985810;28;20042;-62
2024/02/07 02:02:54;;;;;;;5.93;3.00;;;6.60;83.10;;;;;;4982007;28;20126;-61
2024/02/07 02:05:20;;;;;;;6.45;2.95;;;6.60;83.20;;;;;;4980286;28;20082;-61
2024/02/07 02:07:47;;;;;;;5.05;2.60;;;6.60;83.00;;;;;;4976080;28;20038;-60
2024/02/07 02:10:13;;;;;;;5.07;2.72;;;6.60;83.00;;;;;;4987188;28;20039;-60
2024/02/07 02:12:40;;;;;;;4.85;2.72;;;6.60;83.10;;;;;;4983094;28;20133;-61
2024/02/07 02:15:07;;;;;;;5.90;2.92;;;6.60;82.90;;;;;;4984658;28;20304;-61
2024/02/07 02:17:32;;;;;;;6.30;2.78;;;6.70;82.90;;;;;;4982878;28;20085;-61
2024/02/07 02:19:58;;;;;;;3.92;2.88;;;6.60;82.70;;;;;;4983356;28;20023;-61
2024/02/07 02:22:48;;;;;;;5.50;2.90;;;6.70;82.90;;;;;;4985081;28;20034;-62
2024/02/07 02:25:37;;;;;;;4.28;2.70;;;6.70;83.20;;;;;;4982091;28;20597;-60
2024/02/07 02:28:31;;;;;;;4.03;2.55;;;6.70;82.90;;;;;;4979077;28;20034;-61
2024/02/07 02:31:03;;;;;;;3.67;2.60;;;6.70;82.90;;;;;;4976569;28;20030;-62
2024/02/07 02:33:33;;;;;;;4.13;2.60;;;6.70;82.60;;;;;;4975890;28;20043;-62
2024/02/07 02:36:00;;;;;;;5.35;2.78;;;6.70;82.50;;;;;;4978388;28;20045;-61
2024/02/07 02:38:27;;;;;;;5.78;2.95;;;6.70;82.50;;;;;;4987964;28;20093;-62
2024/02/07 02:40:54;;;;;;;5.50;2.97;;;6.60;82.40;;;;;;4976744;28;20073;-61
2024/02/07 02:43:22;;;;;;;3.03;2.42;;;6.60;82.50;;;;;;4980053;28;20050;-62
2024/02/07 02:45:48;;;;;;;7.65;2.67;;;6.60;82.60;;;;;;4985189;28;20045;-62
2024/02/07 02:48:14;;;;;;;4.45;3.00;;;6.60;82.60;;;;;;4988847;28;20052;-62
2024/02/07 02:50:40;;;;;;;4.38;3.08;;;6.60;82.50;;;;;;4978016;28;20541;-62
2024/02/07 02:53:06;;;;;;;5.50;2.63;;;6.60;82.60;;;;;;4986047;28;20038;-60
2024/02/07 02:55:32;;;;;;;5.75;2.78;;;6.60;82.70;;;;;;4984689;28;20118;-61
2024/02/07 02:58:00;;;;;;;3.97;3.00;;;6.60;82.70;;;;;;4982252;28;20594;-61
2024/02/07 03:00:27;;;;;;;6.38;3.20;;;6.60;82.80;;;;;;4975729;28;20164;-61
2024/02/07 03:02:56;;;;;;;5.85;2.42;;;6.60;82.80;;;;;;4983899;28;20038;-62
2024/02/07 03:10:36;;;;;;;5.35;2.83;;;6.50;82.80;;;;;;4978562;28;20034;-62
2024/02/07 03:13:02;;;;;;;4.53;2.70;;;6.50;82.80;;;;;;4980595;28;20050;-61
2024/02/07 03:15:29;;;;;;;3.30;2.70;;;6.50;82.90;;;;;;4976833;28;20498;-60
2024/02/07 03:17:54;;;;;;;5.13;3.22;;;6.50;82.80;;;;;;4982624;28;20441;-59
2024/02/07 03:20:20;;;;;;;4.72;3.05;;;6.50;82.80;;;;;;4990742;28;20228;-61
2024/02/07 03:22:46;;;;;;;3.92;3.03;;;6.50;82.90;;;;;;4989837;28;20038;-61
2024/02/07 03:25:16;;;;;;;5.78;2.88;;;6.50;82.80;;;;;;4976061;28;20084;-60
2024/02/07 03:27:46;;;;;;;3.47;3.13;;;6.50;82.80;;;;;;4978303;28;20030;-61
2024/02/07 03:30:21;;;;;;;4.07;2.90;;;6.50;82.80;;;;;;4983968;28;20035;-59
2024/02/07 03:32:47;;;;;;;5.53;2.90;;;6.50;82.90;;;;;;4985124;28;20409;-60
2024/02/07 03:35:14;;;;;;;5.38;3.20;;;6.50;82.80;;;;;;4982494;28;20049;-61
2024/02/07 03:37:40;;;;;;;4.20;3.50;;;6.50;82.80;;;;;;4980387;28;20034;-60
2024/02/07 03:40:15;;;;;;;3.95;3.30;;;6.50;82.80;;;;;;4974640;28;20039;-60
2024/02/07 03:42:41;;;;;;;;;;;6.50;82.80;;;;;;4980673;28;20407;-59
2024/02/07 03:45:09;;;;;;;5.68;3.25;;;6.50;82.80;;;;;;4975795;28;19922;-61
2024/02/07 03:47:38;;;;;;;4.57;3.35;;;6.50;82.30;;;;;;4981169;28;20042;-59
2024/02/07 03:50:10;;;;;;;5.57;3.47;;;6.50;82.40;;;;;;4988384;28;20058;-61
2024/02/07 03:52:42;;;;;;;6.85;3.03;;;6.50;82.50;;;;;;4983404;28;20035;-61
2024/02/07 03:55:10;;;;;;;5.38;3.05;;;6.50;82.60;;;;;;4974643;28;20038;-60
2024/02/07 03:57:36;;;;;;;6.15;2.95;;;6.50;82.60;;;;;;4978481;28;20027;-59
2024/02/07 04:00:08;;;;;;;7.30;3.28;;;6.50;82.50;;;;;;4977003;28;20034;-60
2024/02/07 04:02:37;;;;;;;3.60;2.88;;;6.60;82.60;;;;;;4981672;28;20037;-60
2024/02/07 04:05:03;;;;;;;7.47;3.00;;;6.60;82.50;;;;;;4983025;28;20499;-61
2024/02/07 04:07:28;;;;;;;3.30;2.70;;;6.60;82.50;;;;;;4983977;28;20042;-61
2024/02/07 04:09:55;;;;;;;6.05;3.10;;;6.60;82.40;;;;;;4981024;28;20037;-61
2024/02/07 05:17:21;;;;;;;5.85;3.75;;;6.60;81.80;;;;;;4981576;28;20154;-61
2024/02/07 05:19:50;;;;;;;7.57;3.95;;;6.60;81.80;;;;;;4975180;28;20122;-59
2024/02/07 05:22:17;;;;;;;4.72;3.78;;;6.70;81.90;;;;;;4987543;28;20034;-61
2024/02/07 05:24:45;;;;;;;4.68;3.78;;;6.70;81.90;;;;;;4979913;28;20031;-62
2024/02/07 05:27:12;;;;;;;5.85;4.20;;;6.60;81.80;;;;;;4977407;28;20144;-61
2024/02/07 05:29:38;;;;;;;7.05;4.05;;;6.70;81.80;;;;;;4985199;28;20125;-61
2024/02/07 05:32:05;;;;;;;6.50;4.13;;;6.60;81.70;;;;;;4982284;28;20449;-61
2024/02/07 05:34:30;;;;;;;7.25;4.47;;;6.70;81.80;;;;;;4987385;28;20414;-62
2024/02/07 05:36:56;;;;;;;7.70;4.22;;;6.70;81.80;;;;;;4985163;28;20045;-62
2024/02/07 05:39:23;;;;;;;7.00;4.20;;;6.70;81.90;;;;;;4978764;28;20050;-61
2024/02/07 05:41:49;;;;;;;5.57;4.32;;;6.60;81.80;;;;;;4976772;28;20077;-62
2024/02/07 05:44:15;;;;;;;6.90;4.32;;;6.60;81.80;;;;;;4974022;28;20038;-60
2024/02/07 05:46:42;;;;;;;6.13;4.32;;;6.70;81.90;;;;;;4981547;28;20055;-61
2024/02/07 05:49:08;;;;;;;5.47;4.03;;;6.60;81.90;;;;;;4978521;28;20034;-62
2024/02/07 05:51:34;;;;;;;6.63;3.88;;;6.70;82.00;;;;;;4982687;28;20077;-61
2024/02/07 05:54:00;;;;;;;6.38;4.13;;;6.70;82.00;;;;;;4981790;28;20054;-61
2024/02/07 05:56:25;;;;;;;7.32;4.18;;;6.70;81.90;;;;;;4973564;28;20061;-60
2024/02/07 05:58:51;;;;;;;4.90;4.00;;;6.70;81.90;;;;;;4987036;28;20038;-59
2024/02/07 06:01:17;;;;;;;8.60;4.78;;;6.70;82.00;;;;;;4978029;28;20041;-61
2024/02/07 06:03:50;;;;;;;5.82;3.95;;;6.70;81.90;;;;;;4976152;28;20031;-61
2024/02/07 06:06:19;;;;;;;5.47;4.00;;;6.70;81.90;;;;;;4981026;28;20031;-61
2024/02/07 06:08:47;;;;;;;8.65;4.20;;;6.70;81.90;;;;;;4983493;28;20076;-60
2024/02/07 06:11:13;;;;;;;7.55;4.35;;;6.70;81.80;;;;;;4979624;28;20026;-61
2024/02/07 06:13:39;;;;;;;9.70;4.90;;;6.70;81.80;;;;;;4981918;28;20457;-60
2024/02/07 06:16:05;;;;;;;6.22;4.32;;;6.70;81.80;;;;;;4972937;28;20026;-62
2024/02/07 06:18:31;;;;;;;7.82;4.80;;;6.70;82.60;;;;;;4981111;28;20407;-61
2024/02/07 06:20:56;;;;;;;8.45;4.20;;;6.70;81.70;;;;;;4976557;28;20034;-62
2024/02/07 06:23:22;;;;;;;9.15;4.40;;;6.70;81.80;;;;;;4979137;28;20089;-62
2024/02/07 06:25:51;;;;;;;6.80;4.20;;;6.70;81.70;;;;;;4983022;28;20640;-62
2024/02/07 06:28:16;;;;;;;8.13;4.80;;;6.70;81.70;;;;;;4974559;28;20050;-62
2024/02/07 06:30:43;;;;;;;8.55;5.20;;;6.70;81.70;;;;;;4985282;28;20062;-61
2024/02/07 06:33:09;;;;;;;8.52;4.50;;;6.70;81.70;;;;;;4977760;28;20027;-61
2024/02/07 06:35:35;;;;;;;8.05;4.70;;;6.70;81.60;;;;;;4977766;28;20026;-61
2024/02/07 06:38:00;;;;;;;6.82;4.65;;;6.70;81.70;;;;;;4988540;28;20043;-62
2024/02/07 06:40:29;;;;;;;7.65;4.38;;;6.70;81.60;;;;;;4974784;28;20410;-62
2024/02/07 06:42:55;;;;;;;9.38;4.93;;;6.70;81.70;;;;;;4986897;28;20088;-61
2024/02/07 06:45:20;;;;;;;7.80;4.70;;;6.70;81.60;;;;;;4978356;28;20050;-61
2024/02/07 06:47:46;;;;;;;8.45;4.40;;;6.70;81.60;;;;;;4975020;28;20038;-60
2024/02/07 06:50:12;;;;;;;7.78;4.95;;;6.60;81.60;;;;;;4979229;28;20038;-61
2024/02/07 06:52:39;;;;;;;9.13;4.60;;;6.70;81.70;;;;;;4973557;28;20065;-62
2024/02/07 06:55:05;;;;;;;9.23;5.40;;;6.60;81.70;;;;;;4986775;28;20035;-60
2024/02/07 06:57:31;;;;;;;11.18;4.90;;;6.60;81.70;;;;;;4980197;28;20089;-61
2024/02/07 06:59:56;;;;;;;10.75;4.80;;;6.60;81.70;;;;;;4978723;28;20026;-60
2024/02/07 07:02:22;;;;;;;8.25;4.47;;;6.60;81.80;;;;;;4980351;28;20034;-61
2024/02/07 07:04:48;;;;;;;7.95;4.57;;;6.60;81.80;;;;;;4974308;28;20335;-62
2024/02/07 07:07:14;;;;;;;7.55;4.45;;;6.70;81.90;;;;;;4978171;28;20159;-60
2024/02/07 07:09:41;;;;;;;8.70;4.75;;;6.60;81.90;;;;;;4982338;28;20133;-59
2024/02/07 07:12:07;;;;;;;9.25;4.80;;;6.70;82.00;;;;;;4972510;28;20566;-61
2024/02/07 07:14:37;;;;;;;6.60;4.38;;;6.70;82.20;;;;;;4982279;28;20133;-62
2024/02/07 07:17:03;;;;;;;7.13;4.18;;;6.70;82.20;;;;;;4981607;28;20072;-62
2024/02/07 07:19:28;;;;;;;7.30;4.50;;;6.80;82.30;;;;;;4976272;28;20030;-61
2024/02/07 07:21:55;;;;;;;8.88;4.60;;;6.80;82.30;;;;;;4980772;28;20049;-62
2024/02/07 07:24:21;;;;;;;8.20;4.50;;;6.80;83.10;;;;;;4972343;28;20505;-60
2024/02/07 07:26:46;;;;;;;6.85;4.57;;;6.80;82.30;;;;;;4979793;28;20050;-61
2024/02/07 07:29:12;;;;;;;6.25;4.63;;;6.90;82.40;;;;;;4982287;28;20034;-61
2024/02/07 07:31:37;;;;;;;7.03;3.90;;;6.90;82.40;;;;;;4980381;28;20035;-60
2024/02/07 07:34:03;;;;;;;8.05;4.20;;;7.00;82.50;;;;;;4980317;28;20050;-58
2024/02/07 07:36:29;;;;;;;8.85;4.35;;;7.00;82.60;;;;;;4976270;28;20046;-60
2024/02/07 07:38:55;;;;;;;7.82;4.40;;;7.10;82.60;;;;;;4980677;28;20494;-61
2024/02/07 07:41:20;;;;;;;8.07;4.22;;;7.20;82.60;;;;;;4977490;28;20034;-60
2024/02/07 07:43:46;;;;;;;7.22;4.10;;;7.20;82.70;;;;;;4974743;28;20391;-60
2024/02/07 07:46:12;;;;;;;6.93;3.88;;;7.30;82.70;;;;;;4979467;28;20601;-62
2024/02/07 07:48:38;;;;;;;7.53;4.20;;;7.40;82.60;;;;;;4982531;28;20073;-62
2024/02/07 07:51:06;;;;;;;7.32;3.97;;;7.50;82.50;;;;;;4977545;28;20498;-61
2024/02/07 07:53:32;;;;;;;8.68;3.83;;;7.50;82.20;;;;;;4979708;28;20414;-62
2024/02/07 07:55:57;;;;;;;9.23;4.03;;;7.60;82.20;;;;;;4985474;28;20090;-61
2024/02/07 07:58:23;;;;;;;9.88;4.40;;;7.70;82.10;;;;;;4979575;28;20062;-62
2024/02/07 08:00:48;;;;;;;6.18;4.35;;;7.70;82.00;;;;;;4974010;28;20555;-62
2024/02/07 08:03:14;;;;;;;6.18;4.32;;;7.80;82.00;;;;;;4977901;28;20031;-62
2024/02/07 08:05:40;;;;;;;7.30;3.95;;;7.90;82.00;;;;;;4979765;28;20116;-61
2024/02/07 08:08:07;;;;;;;7.97;3.92;;;7.90;81.90;;;;;;4977444;28;20046;-60
2024/02/07 08:10:34;;;;;;;7.00;4.72;;;8.00;81.70;;;;;;4979579;28;20034;-60
2024/02/07 08:12:59;;;;;;;5.20;3.88;;;8.00;81.70;;;;;;4975164;28;20121;-59
2024/02/07 08:15:25;;;;;;;5.93;3.72;;;8.10;81.70;;;;;;4976001;28;20122;-59
2024/02/07 08:17:50;;;;;;;8.40;3.90;;;8.10;81.50;;;;;;4980164;28;20034;-61
2024/02/07 08:20:16;;;;;;;7.28;3.97;;;8.20;81.40;;;;;;4973519;28;20034;-61
2024/02/07 08:22:42;;;;;;;6.15;3.65;;;8.20;81.30;;;;;;4981846;28;20034;-62
2024/02/07 08:25:08;;;;;;;9.77;4.15;;;8.30;81.20;;;;;;4984983;28;20383;-62
2024/02/07 08:27:33;;;;;;;6.53;3.60;;;8.30;81.00;;;;;;4974758;28;20043;-62
2024/02/07 08:29:59;;;;;;;7.00;4.07;;;8.40;80.80;;;;;;4985018;28;20035;-59
2024/02/07 08:32:25;;;;;;;7.38;3.85;;;8.40;80.60;;;;;;4974305;28;20026;-60
2024/02/07 08:34:51;;;;;;;8.93;3.90;;;8.50;80.60;;;;;;4979289;28;20043;-62
2024/02/07 08:37:17;;;;;;;6.70;3.70;;;8.50;80.50;;;;;;4980807;28;20521;-63
2024/02/07 08:39:42;;;;;;;8.57;4.07;;;8.50;80.30;;;;;;4977313;28;20066;-63
2024/02/07 08:42:08;;;;;;;5.60;3.50;;;8.60;80.30;;;;;;4979694;28;20038;-62
2024/02/07 08:44:33;;;;;;;9.70;3.60;;;8.60;80.20;;;;;;4976868;28;20155;-62
2024/02/07 08:46:59;;;;;;;6.20;3.50;;;8.70;80.10;;;;;;4971240;28;20093;-62
2024/02/07 08:49:24;;;;;;;5.88;3.60;;;8.70;80.00;;;;;;4978376;28;20050;-62
2024/02/07 08:51:50;;;;;;;8.27;3.95;;;8.70;79.80;;;;;;4974418;28;20565;-62
2024/02/07 08:54:15;;;;;;;5.68;3.60;;;8.80;80.00;;;;;;4990204;28;20034;-61
2024/02/07 08:56:41;;;;;;;6.28;3.65;;;8.80;79.70;;;;;;4982376;28;20498;-61
2024/02/07 08:59:07;;;;;;;9.13;3.67;;;8.90;79.50;;;;;;4986948;28;20035;-62
2024/02/07 09:01:32;;;;;;;9.73;3.60;;;8.90;79.20;;;;;;4980267;28;20042;-62
2024/02/07 09:03:58;;;;;;;5.53;3.63;;;8.90;78.90;;;;;;4983466;28;20413;-62
2024/02/07 09:06:23;;;;;;;6.35;3.55;;;9.00;78.90;;;;;;4981821;28;20035;-61
2024/02/07 09:08:49;;;;;;;6.78;3.58;;;9.00;78.70;;;;;;4980949;28;20035;-62
2024/02/07 09:11:14;;;;;;;6.30;3.65;;;9.00;78.60;;;;;;4986661;28;20023;-62
2024/02/07 09:13:40;;;;;;;7.78;3.40;;;9.00;78.60;;;;;;4983201;28;20069;-62
2024/02/07 09:16:06;;;;;;;6.20;3.30;;;9.00;78.60;;;;;;4981760;28;20030;-62
2024/02/07 09:18:35;;;;;;;7.20;3.85;;;9.00;78.50;;;;;;4989147;28;20093;-62
2024/02/07 09:21:00;;;;;;;6.55;3.65;;;9.00;78.30;;;;;;4977929;28;20035;-63
2024/02/07 09:23:26;;;;;;;8.10;3.60;;;9.10;78.50;;;;;;4989697;28;20030;-62
2024/02/07 09:25:51;;;;;;;9.85;4.00;;;9.00;78.40;;;;;;4987597;28;20046;-62
2024/02/07 09:28:17;;;;;;;7.88;3.83;;;9.10;78.50;;;;;;4982918;28;20053;-63
2024/02/07 09:30:42;;;;;;;6.60;3.33;;;9.10;78.60;;;;;;4986415;28;20042;-63
2024/02/07 09:33:08;;;;;;;6.28;4.00;;;9.10;78.60;;;;;;4989235;28;20038;-61
2024/02/07 09:35:33;;;;;;;7.68;3.60;;;9.10;78.70;;;;;;4981914;28;20058;-62
2024/02/07 09:37:59;;;;;;;7.63;3.63;;;9.10;78.70;;;;;;4988946;28;20077;-62
2024/02/07 09:40:25;;;;;;;5.43;3.30;;;9.10;78.70;;;;;;4986280;28;20030;-62
2024/02/07 09:42:51;;;;;;;8.85;3.10;;;9.10;78.60;;;;;;4992674;28;20069;-59
2024/02/07 09:45:18;;;;;;;9.32;3.60;;;9.10;78.60;;;;;;4983874;28;20070;-62
2024/02/07 09:48:03;;;;;;;5.38;3.58;;;9.10;78.60;;;;;;4978768;28;20333;-61
2024/02/07 09:50:29;;;;;;;6.63;3.50;;;9.20;78.60;;;;;;4986328;28;20027;-62
2024/02/07 09:52:56;;;;;;;7.70;3.65;;;9.20;78.60;;;;;;4980530;28;20498;-60
2024/02/07 09:55:23;;;;;;;7.75;3.50;;;9.20;78.60;;;;;;4990366;28;20051;-62
2024/02/07 09:57:50;;;;;;;9.23;3.60;;;9.20;78.60;;;;;;4983125;28;20035;-61
2024/02/07 10:00:16;;;;;;;9.68;3.30;;;9.20;78.50;;;;;;4974783;28;20058;-60
2024/02/07 10:02:48;;;;;;;7.43;3.70;;;9.30;78.50;;;;;;4989210;28;20050;-62
2024/02/07 10:05:16;;;;;;;5.30;3.75;;;9.30;78.30;;;;;;4981674;28;20542;-60
2024/02/07 10:07:42;;;;;;;5.57;3.20;;;9.30;78.50;;;;;;4983239;28;20585;-62
2024/02/07 10:10:08;;;;;;;5.88;3.67;;;9.30;78.30;;;;;;4985539;28;20035;-60
2024/02/07 10:12:35;;;;;;;9.15;3.50;;;9.30;78.30;;;;;;4976724;28;20472;-61
2024/02/07 10:15:01;;;;;;;5.82;3.28;;;9.40;78.20;;;;;;4983013;28;20034;-62
2024/02/07 10:17:26;;;;;;;7.00;3.22;;;9.40;78.10;;;;;;4985743;28;20064;-62
2024/02/07 10:19:52;;;;;;;4.05;2.72;;;9.40;79.00;;;;;;4980730;28;20085;-62
2024/02/07 10:22:20;;;;;;;6.03;3.28;;;9.50;78.20;;;;;;4985886;28;20055;-63
2024/02/07 10:24:46;;;;;;;9.23;3.45;;;9.50;78.00;;;;;;4981337;28;20379;-62
2024/02/07 10:27:19;;;;;;;5.15;2.90;;;9.50;77.90;;;;;;4982767;28;20031;-62
2024/02/07 10:29:45;;;;;;;5.60;3.17;;;9.50;77.60;;;;;;4987756;28;20046;-59
2024/02/07 10:32:16;;;;;;;4.60;3.25;;;9.60;77.80;;;;;;4980863;28;20050;-62
2024/02/07 10:34:44;;;;;;;5.47;2.97;;;9.60;77.70;;;;;;4989361;28;20042;-61
2024/02/07 10:37:10;;;;;;;6.95;3.28;;;9.60;77.70;;;;;;4984144;28;20532;-61
2024/02/07 10:39:36;;;;;;;5.18;2.97;;;9.70;77.70;;;;;;4988208;28;20038;-61
2024/02/07 10:42:07;;;;;;;6.55;2.90;;;9.70;77.70;;;;;;4989118;28;20037;-61
2024/02/07 10:44:33;;;;;;;4.45;2.72;;;9.70;77.40;;;;;;4982194;28;20042;-60
2024/02/07 10:47:00;;;;;;;9.88;3.30;;;9.80;77.30;;;;;;4980206;28;20046;-61
2024/02/07 10:49:26;;;;;;;4.80;3.08;;;9.80;77.30;;;;;;4981868;28;20038;-61
2024/02/07 10:51:52;;;;;;;4.40;3.47;;;9.90;77.20;;;;;;4974498;28;20181;-62
2024/02/07 10:54:18;;;;;;;4.97;3.00;;;9.90;77.40;;;;;;4990538;28;20031;-62
2024/02/07 10:56:45;;;;;;;7.32;3.35;;;9.90;77.40;;;;;;4979924;28;20505;-60
2024/02/07 10:59:12;;;;;;;5.63;3.25;;;10.00;77.20;;;;;;4982822;28;20113;-62
2024/02/07 11:01:38;;;;;;;5.80;3.30;;;10.00;77.00;;;;;;4983519;28;20524;-61
2024/02/07 11:04:04;;;;;;;7.07;3.80;;;10.10;76.90;;;;;;4980305;28;20041;-62
2024/02/07 11:06:32;;;;;;;7.72;3.47;;;10.10;76.70;;;;;;4979838;28;20073;-60
2024/02/07 11:08:58;;;;;;;8.30;3.20;;;10.10;76.80;;;;;;4983758;28;20573;-62
2024/02/07 11:11:29;;;;;;;6.75;2.88;;;10.20;76.80;;;;;;4981767;28;20102;-62
2024/02/07 11:13:57;;;;;;;4.72;3.05;;;10.20;76.70;;;;;;4982963;28;20403;-61
2024/02/07 11:16:23;;;;;;;6.07;3.28;;;10.20;76.60;;;;;;4986583;28;20027;-62
2024/02/07 11:18:49;;;;;;;5.80;3.10;;;10.30;76.60;;;;;;4987656;28;20069;-63
2024/02/07 11:21:20;;;;;;;9.43;3.13;;;10.30;76.50;;;;;;4984746;28;20490;-62
2024/02/07 11:23:48;;;;;;;4.68;2.88;;;10.30;76.30;;;;;;4978231;28;20030;-63
2024/02/07 11:26:15;;;;;;;6.60;3.03;;;10.40;76.20;;;;;;4980775;28;20514;-62
2024/02/07 11:28:41;;;;;;;6.95;3.10;;;10.40;76.30;;;;;;4981452;28;20113;-60
2024/02/07 11:31:07;;;;;;;5.57;2.78;;;10.50;76.20;;;;;;4983579;28;20430;-62
2024/02/07 11:33:36;;;;;;;4.03;2.60;;;10.50;76.20;;;;;;4989966;28;20036;-61
2024/02/07 11:36:06;;;;;;;4.20;2.53;;;10.60;75.80;;;;;;4982600;28;20034;-60
2024/02/07 11:38:35;;;;;;;5.70;2.70;;;10.60;75.80;;;;;;4993514;28;20404;-61
2024/02/07 11:41:05;;;;;;;4.95;2.78;;;10.70;75.80;;;;;;4978561;28;20034;-61
2024/02/07 11:43:30;;;;;;;7.93;2.97;;;10.70;75.60;;;;;;4985288;28;20035;-62
2024/02/07 11:46:05;;;;;;;5.03;2.70;;;10.80;75.60;;;;;;4986342;28;20039;-61
2024/02/07 11:48:36;;;;;;;6.10;2.70;;;10.80;74.60;;;;;;4986866;28;20030;-62
2024/02/07 11:51:06;;;;;;;6.18;2.80;;;10.90;75.30;;;;;;4976703;28;20430;-62
2024/02/07 11:53:32;;;;;;;3.15;2.45;;;10.90;74.70;;;;;;4982650;28;20097;-60
2024/02/07 11:55:58;;;;;;;5.50;3.10;;;11.00;74.90;;;;;;4984104;28;20034;-62
2024/02/07 11:58:25;;;;;;;6.40;2.88;;;11.00;74.70;;;;;;4979667;28;20410;-62
2024/02/07 12:00:50;;;;;;;4.38;2.85;;;11.10;74.70;;;;;;4978051;28;20081;-62
2024/02/07 12:03:17;;;;;;;5.60;3.13;;;11.10;74.00;;;;;;4983425;28;20026;-58
2024/02/07 12:05:43;;;;;;;7.63;3.17;;;11.10;73.30;;;;;;4982211;28;20042;-63
2024/02/07 12:08:11;;;;;;;8.85;2.70;;;11.20;73.90;;;;;;4973196;28;20560;-62
2024/02/07 12:10:36;;;;;;;4.53;2.53;;;11.20;73.20;;;;;;4986438;28;20065;-60
2024/02/07 12:13:02;;;;;;;6.82;3.03;;;11.20;73.70;;;;;;4975785;28;20035;-61
2024/02/07 12:15:29;;;;;;;4.88;2.70;;;11.30;73.30;;;;;;4981215;28;20054;-62
2024/02/07 12:17:55;;;;;;;8.23;2.85;;;11.30;73.00;;;;;;4981847;28;20050;-60
2024/02/07 12:20:21;;;;;;;4.55;2.40;;;11.30;72.50;;;;;;4977197;28;20027;-62
2024/02/07 12:22:46;;;;;;;5.53;2.60;;;11.40;72.90;;;;;;4986518;28;20034;-63
2024/02/07 12:25:16;;;;;;;4.32;2.60;;;11.40;72.60;;;;;;4982545;28;20043;-63
2024/02/07 12:27:44;;;;;;;4.75;2.67;;;11.40;72.00;;;;;;4980533;28;20043;-61
2024/02/07 12:30:10;;;;;;;5.90;3.15;;;11.40;72.40;;;;;;4977034;28;20027;-61
2024/02/07 12:32:37;;;;;;;4.35;2.17;;;11.50;72.60;;;;;;4985968;28;20030;-62
2024/02/07 12:35:04;;;;;;;4.45;2.75;;;11.40;72.50;;;;;;4988643;28;20097;-62
2024/02/07 12:37:30;;;;;;;6.75;3.05;;;11.50;71.80;;;;;;4987602;28;20092;-63
2024/02/07 12:39:56;;;;;;;7.28;3.00;;;11.40;71.60;;;;;;4993861;28;20046;-61
2024/02/07 12:42:25;;;;;;;5.45;2.40;;;11.40;71.90;;;;;;4989240;28;20026;-62
2024/02/07 12:44:50;;;;;;;5.88;2.88;;;11.40;71.80;;;;;;4982072;28;20030;-62
2024/02/07 12:47:20;;;;;;;6.15;3.10;;;11.40;71.80;;;;;;4987031;28;20039;-63
2024/02/07 12:49:47;;;;;;;5.35;2.80;;;11.40;71.10;;;;;;4984615;28;20062;-62
2024/02/07 12:52:13;;;;;;;9.68;2.80;;;11.40;71.40;;;;;;4974875;28;20410;-60
2024/02/07 12:54:39;;;;;;;3.35;2.10;;;11.40;71.90;;;;;;4990562;28;20035;-63
2024/02/07 12:57:05;;;;;;;5.72;2.42;;;11.40;71.90;;;;;;4991616;28;20036;-62
2024/02/07 12:59:35;;;;;;;5.38;2.70;;;11.40;71.60;;;;;;4981629;28;20034;-63
2024/02/07 13:02:08;;;;;;;6.32;2.63;;;11.50;71.50;;;;;;4984876;28;20038;-60
2024/02/07 13:04:34;;;;;;;2.92;2.13;;;11.50;71.10;;;;;;4977711;28;20037;-62
2024/02/07 13:07:00;;;;;;;3.70;2.70;;;11.50;71.50;;;;;;4978809;28;20042;-61
2024/02/07 13:09:27;;;;;;;5.22;2.60;;;11.40;71.30;;;;;;4986797;28;20454;-62
2024/02/07 13:11:53;;;;;;;4.72;2.63;;;11.40;70.90;;;;;;4982935;28;20067;-62
2024/02/07 13:14:19;;;;;;;3.92;2.28;;;11.50;71.00;;;;;;4982915;28;20034;-62
2024/02/07 13:16:45;;;;;;;5.00;2.65;;;11.40;71.00;;;;;;4981462;28;20030;-61
2024/02/07 13:19:15;;;;;;;4.78;2.60;;;11.50;71.40;;;;;;4983907;28;20023;-61
2024/02/07 13:21:41;;;;;;;5.63;2.53;;;11.40;70.70;;;;;;4989089;28;20061;-61
2024/02/07 13:24:19;;;;;;;6.65;2.40;;;11.40;70.70;;;;;;4978752;28;20041;-61
2024/02/07 13:26:46;;;;;;;6.93;2.50;;;11.40;70.30;;;;;;4976812;28;20045;-62
2024/02/07 13:29:11;;;;;;;5.20;2.20;;;11.50;71.10;;;;;;4979435;28;20691;-62
2024/02/07 13:31:41;;;;;;;5.10;2.30;;;11.50;71.10;;;;;;4987096;28;20115;-62
2024/02/07 13:34:11;;;;;;;5.78;2.30;;;11.50;71.20;;;;;;4989208;28;20154;-60
2024/02/07 13:36:37;;;;;;;4.65;2.33;;;11.50;71.10;;;;;;4982747;28;20041;-62
2024/02/07 13:39:03;;;;;;;4.40;2.20;;;11.50;71.10;;;;;;4993748;28;20030;-62
2024/02/07 13:41:31;;;;;;;8.50;2.60;;;11.50;71.10;;;;;;4985142;28;20509;-62
2024/02/07 13:43:57;;;;;;;6.13;2.10;;;11.50;71.20;;;;;;4988946;28;20084;-61
2024/02/07 13:46:22;;;;;;;5.28;2.58;;;11.50;71.20;;;;;;4987576;28;20042;-60
2024/02/07 13:48:48;;;;;;;8.13;2.28;;;11.50;71.20;;;;;;4983002;28;20041;-62
2024/02/07 13:51:13;;;;;;;4.70;2.47;;;11.50;71.10;;;;;;4983823;28;20027;-63
2024/02/07 13:53:39;;;;;;;5.82;2.42;;;11.40;71.00;;;;;;4986810;28;20046;-62
2024/02/07 13:56:05;;;;;;;6.38;2.50;;;11.50;70.90;;;;;;4980587;28;20041;-63
2024/02/07 13:58:31;;;;;;;3.90;2.20;;;11.40;70.80;;;;;;4981481;28;20039;-63
2024/02/07 14:00:58;;;;;;;4.35;2.55;;;11.40;70.90;;;;;;4983269;28;20547;-60
2024/02/07 14:03:23;;;;;;;4.18;2.35;;;11.50;71.10;;;;;;4982607;28;20039;-63